sensor_id;sensor_type;location;lat;lon;timestamp;P1;durP1;ratioP1;P2;durP2;ratioP2
9413;SDS011;4746;35.664;139.738;2024-03-29T00:01:03;12.73;;;4.50;;
9413;SDS011;4746;35.664;139.738;2024-03-29T00:03:34;10.07;;;4.00;;
9413;SDS011;4746;35.664;139.738;2024-03-29T00:06:01;11.27;;;3.87;;
9413;SDS011;4746;35.664;139.738;2024-03-29T00:08:29;13.73;;;4.60;;
9413;SDS011;4746;35.664;139.738;2024-03-29T00:10:59;15.90;;;4.17;;
9413;SDS011;4746;35.664;139.738;2024-03-29T00:13:28;12.40;;;4.33;;
9413;SDS011;4746;35.664;139.738;2024-03-29T00:15:56;11.13;;;3.33;;
9413;SDS011;4746;35.664;139.738;2024-03-29T00:18:23;13.93;;;3.87;;
9413;SDS011;4746;35.664;139.738;2024-03-29T00:20:51;14.77;;;4.47;;
9413;SDS011;4746;35.664;139.738;2024-03-29T00:23:19;12.03;;;4.23;;
9413;SDS011;4746;35.664;139.738;2024-03-29T00:25:47;14.83;;;5.30;;
9413;SDS011;4746;35.664;139.738;2024-03-29T00:28:16;11.73;;;4.37;;
9413;SDS011;4746;35.664;139.738;2024-03-29T00:30:44;15.93;;;4.97;;
9413;SDS011;4746;35.664;139.738;2024-03-29T00:33:12;12.70;;;3.60;;
9413;SDS011;4746;35.664;139.738;2024-03-29T00:35:39;11.70;;;3.57;;
9413;SDS011;4746;35.664;139.738;2024-03-29T00:38:09;13.30;;;4.13;;
9413;SDS011;4746;35.664;139.738;2024-03-29T00:40:39;11.37;;;3.33;;
9413;SDS011;4746;35.664;139.738;2024-03-29T00:43:07;13.53;;;3.77;;
9413;SDS011;4746;35.664;139.738;2024-03-29T00:45:38;11.03;;;3.70;;
9413;SDS011;4746;35.664;139.738;2024-03-29T00:48:08;11.13;;;4.17;;
9413;SDS011;4746;35.664;139.738;2024-03-29T00:50:36;10.47;;;3.77;;
9413;SDS011;4746;35.664;139.738;2024-03-29T00:53:05;8.07;;;3.03;;
9413;SDS011;4746;35.664;139.738;2024-03-29T00:55:33;8.43;;;3.40;;
9413;SDS011;4746;35.664;139.738;2024-03-29T00:58:01;11.90;;;3.80;;
9413;SDS011;4746;35.664;139.738;2024-03-29T01:00:28;12.67;;;3.67;;
9413;SDS011;4746;35.664;139.738;2024-03-29T01:02:57;11.47;;;3.70;;
9413;SDS011;4746;35.664;139.738;2024-03-29T01:05:26;10.60;;;3.40;;
9413;SDS011;4746;35.664;139.738;2024-03-29T01:07:54;12.80;;;4.80;;
9413;SDS011;4746;35.664;139.738;2024-03-29T01:10:23;11.53;;;3.63;;
9413;SDS011;4746;35.664;139.738;2024-03-29T01:12:50;12.83;;;3.63;;
9413;SDS011;4746;35.664;139.738;2024-03-29T01:15:18;15.03;;;4.83;;
9413;SDS011;4746;35.664;139.738;2024-03-29T01:17:46;19.37;;;5.13;;
9413;SDS011;4746;35.664;139.738;2024-03-29T01:20:13;17.70;;;5.13;;
9413;SDS011;4746;35.664;139.738;2024-03-29T01:22:41;17.47;;;4.97;;
9413;SDS011;4746;35.664;139.738;2024-03-29T01:25:09;14.83;;;5.27;;
9413;SDS011;4746;35.664;139.738;2024-03-29T01:27:39;10.87;;;3.53;;
9413;SDS011;4746;35.664;139.738;2024-03-29T01:30:06;11.57;;;4.80;;
9413;SDS011;4746;35.664;139.738;2024-03-29T01:32:35;11.23;;;3.83;;
9413;SDS011;4746;35.664;139.738;2024-03-29T01:35:04;9.20;;;3.97;;
9413;SDS011;4746;35.664;139.738;2024-03-29T01:37:36;14.67;;;4.73;;
9413;SDS011;4746;35.664;139.738;2024-03-29T01:40:04;12.07;;;5.43;;
9413;SDS011;4746;35.664;139.738;2024-03-29T01:42:33;14.17;;;5.87;;
9413;SDS011;4746;35.664;139.738;2024-03-29T01:45:05;14.70;;;4.63;;
9413;SDS011;4746;35.664;139.738;2024-03-29T01:47:34;14.33;;;4.87;;
9413;SDS011;4746;35.664;139.738;2024-03-29T01:50:02;13.53;;;5.07;;
9413;SDS011;4746;35.664;139.738;2024-03-29T01:52:31;18.03;;;5.53;;
9413;SDS011;4746;35.664;139.738;2024-03-29T01:55:04;12.77;;;4.50;;
9413;SDS011;4746;35.664;139.738;2024-03-29T01:57:38;13.70;;;3.80;;
9413;SDS011;4746;35.664;139.738;2024-03-29T02:00:07;13.33;;;4.07;;
9413;SDS011;4746;35.664;139.738;2024-03-29T02:02:38;10.73;;;3.80;;
9413;SDS011;4746;35.664;139.738;2024-03-29T02:05:07;12.97;;;4.43;;
9413;SDS011;4746;35.664;139.738;2024-03-29T02:07:35;12.07;;;4.60;;
9413;SDS011;4746;35.664;139.738;2024-03-29T02:10:04;13.67;;;3.93;;
9413;SDS011;4746;35.664;139.738;2024-03-29T02:12:38;14.63;;;3.90;;
9413;SDS011;4746;35.664;139.738;2024-03-29T02:15:06;12.23;;;4.27;;
9413;SDS011;4746;35.664;139.738;2024-03-29T02:17:34;10.97;;;5.33;;
9413;SDS011;4746;35.664;139.738;2024-03-29T02:20:02;17.70;;;5.20;;
9413;SDS011;4746;35.664;139.738;2024-03-29T02:22:31;16.97;;;5.33;;
9413;SDS011;4746;35.664;139.738;2024-03-29T02:25:11;16.87;;;5.07;;
9413;SDS011;4746;35.664;139.738;2024-03-29T02:27:39;12.50;;;5.10;;
9413;SDS011;4746;35.664;139.738;2024-03-29T02:30:08;21.67;;;6.97;;
9413;SDS011;4746;35.664;139.738;2024-03-29T02:32:40;17.77;;;6.03;;
9413;SDS011;4746;35.664;139.738;2024-03-29T02:35:08;18.90;;;5.67;;
9413;SDS011;4746;35.664;139.738;2024-03-29T02:37:36;14.77;;;4.80;;
9413;SDS011;4746;35.664;139.738;2024-03-29T02:40:04;13.53;;;5.10;;
9413;SDS011;4746;35.664;139.738;2024-03-29T02:42:34;14.17;;;4.57;;
9413;SDS011;4746;35.664;139.738;2024-03-29T02:45:02;13.07;;;4.30;;
9413;SDS011;4746;35.664;139.738;2024-03-29T02:47:36;15.07;;;4.97;;
9413;SDS011;4746;35.664;139.738;2024-03-29T02:50:06;8.80;;;4.33;;
9413;SDS011;4746;35.664;139.738;2024-03-29T02:52:41;13.57;;;3.77;;
9413;SDS011;4746;35.664;139.738;2024-03-29T02:55:09;16.63;;;4.23;;
9413;SDS011;4746;35.664;139.738;2024-03-29T02:57:37;16.63;;;5.03;;
9413;SDS011;4746;35.664;139.738;2024-03-29T03:00:07;17.53;;;5.57;;
9413;SDS011;4746;35.664;139.738;2024-03-29T03:02:38;15.77;;;6.30;;
9413;SDS011;4746;35.664;139.738;2024-03-29T03:05:07;14.97;;;5.60;;
9413;SDS011;4746;35.664;139.738;2024-03-29T03:07:35;15.70;;;5.13;;
9413;SDS011;4746;35.664;139.738;2024-03-29T03:10:22;20.10;;;6.37;;
9413;SDS011;4746;35.664;139.738;2024-03-29T03:13:07;20.43;;;6.80;;
9413;SDS011;4746;35.664;139.738;2024-03-29T03:15:35;17.73;;;5.67;;
9413;SDS011;4746;35.664;139.738;2024-03-29T03:18:05;19.80;;;6.27;;
9413;SDS011;4746;35.664;139.738;2024-03-29T03:20:34;17.87;;;5.93;;
9413;SDS011;4746;35.664;139.738;2024-03-29T03:23:03;13.17;;;5.47;;
9413;SDS011;4746;35.664;139.738;2024-03-29T03:25:31;14.23;;;5.57;;
9413;SDS011;4746;35.664;139.738;2024-03-29T03:27:59;24.67;;;7.17;;
9413;SDS011;4746;35.664;139.738;2024-03-29T03:30:26;18.03;;;5.30;;
9413;SDS011;4746;35.664;139.738;2024-03-29T03:32:54;14.80;;;4.60;;
9413;SDS011;4746;35.664;139.738;2024-03-29T03:35:22;13.17;;;5.23;;
9413;SDS011;4746;35.664;139.738;2024-03-29T03:37:49;15.27;;;5.00;;
9413;SDS011;4746;35.664;139.738;2024-03-29T03:40:17;14.90;;;5.13;;
9413;SDS011;4746;35.664;139.738;2024-03-29T03:42:45;15.40;;;5.40;;
9413;SDS011;4746;35.664;139.738;2024-03-29T03:45:13;21.23;;;6.23;;
9413;SDS011;4746;35.664;139.738;2024-03-29T03:47:40;21.50;;;6.50;;
9413;SDS011;4746;35.664;139.738;2024-03-29T03:50:08;14.10;;;5.00;;
9413;SDS011;4746;35.664;139.738;2024-03-29T03:52:36;19.60;;;5.30;;
9413;SDS011;4746;35.664;139.738;2024-03-29T03:55:03;16.73;;;5.57;;
9413;SDS011;4746;35.664;139.738;2024-03-29T03:57:31;12.82;;;4.57;;
9413;SDS011;4746;35.664;139.738;2024-03-29T03:59:59;17.80;;;5.90;;
9413;SDS011;4746;35.664;139.738;2024-03-29T04:02:28;18.17;;;5.38;;
9413;SDS011;4746;35.664;139.738;2024-03-29T04:04:56;14.95;;;5.55;;
9413;SDS011;4746;35.664;139.738;2024-03-29T04:07:24;14.70;;;6.07;;
9413;SDS011;4746;35.664;139.738;2024-03-29T04:09:59;13.82;;;5.10;;
9413;SDS011;4746;35.664;139.738;2024-03-29T04:12:26;20.43;;;6.57;;
9413;SDS011;4746;35.664;139.738;2024-03-29T04:14:54;15.90;;;4.63;;
9413;SDS011;4746;35.664;139.738;2024-03-29T04:17:24;13.70;;;5.50;;
9413;SDS011;4746;35.664;139.738;2024-03-29T04:19:57;12.82;;;5.25;;
9413;SDS011;4746;35.664;139.738;2024-03-29T04:22:30;11.07;;;4.43;;
9413;SDS011;4746;35.664;139.738;2024-03-29T04:24:57;9.13;;;3.58;;
9413;SDS011;4746;35.664;139.738;2024-03-29T04:27:28;10.57;;;3.95;;
9413;SDS011;4746;35.664;139.738;2024-03-29T04:29:56;9.48;;;3.72;;
9413;SDS011;4746;35.664;139.738;2024-03-29T04:32:25;7.75;;;4.05;;
9413;SDS011;4746;35.664;139.738;2024-03-29T04:34:53;10.48;;;3.63;;
9413;SDS011;4746;35.664;139.738;2024-03-29T04:37:20;8.25;;;3.38;;
9413;SDS011;4746;35.664;139.738;2024-03-29T04:39:49;8.30;;;3.20;;
9413;SDS011;4746;35.664;139.738;2024-03-29T04:42:19;6.47;;;2.58;;
9413;SDS011;4746;35.664;139.738;2024-03-29T04:44:47;10.20;;;3.17;;
9413;SDS011;4746;35.664;139.738;2024-03-29T04:47:15;4.25;;;2.58;;
9413;SDS011;4746;35.664;139.738;2024-03-29T04:49:44;5.93;;;2.38;;
9413;SDS011;4746;35.664;139.738;2024-03-29T04:52:11;8.48;;;3.35;;
9413;SDS011;4746;35.664;139.738;2024-03-29T04:54:39;4.22;;;2.15;;
9413;SDS011;4746;35.664;139.738;2024-03-29T04:57:07;5.75;;;2.03;;
9413;SDS011;4746;35.664;139.738;2024-03-29T04:59:34;4.43;;;2.15;;
9413;SDS011;4746;35.664;139.738;2024-03-29T05:02:02;5.70;;;2.08;;
9413;SDS011;4746;35.664;139.738;2024-03-29T05:04:29;3.80;;;1.70;;
9413;SDS011;4746;35.664;139.738;2024-03-29T05:06:57;2.13;;;1.58;;
9413;SDS011;4746;35.664;139.738;2024-03-29T05:09:29;3.88;;;1.85;;
9413;SDS011;4746;35.664;139.738;2024-03-29T05:11:58;3.28;;;2.08;;
9413;SDS011;4746;35.664;139.738;2024-03-29T05:14:28;3.58;;;1.63;;
9413;SDS011;4746;35.664;139.738;2024-03-29T05:16:57;3.90;;;1.85;;
9413;SDS011;4746;35.664;139.738;2024-03-29T05:19:25;2.83;;;1.58;;
9413;SDS011;4746;35.664;139.738;2024-03-29T05:21:53;5.20;;;1.63;;
9413;SDS011;4746;35.664;139.738;2024-03-29T05:24:21;3.60;;;1.83;;
9413;SDS011;4746;35.664;139.738;2024-03-29T05:26:51;3.90;;;2.00;;
9413;SDS011;4746;35.664;139.738;2024-03-29T05:29:19;1.42;;;1.30;;
9413;SDS011;4746;35.664;139.738;2024-03-29T05:31:48;3.70;;;1.65;;
9413;SDS011;4746;35.664;139.738;2024-03-29T05:34:16;2.72;;;1.27;;
9413;SDS011;4746;35.664;139.738;2024-03-29T05:36:44;3.60;;;1.60;;
9413;SDS011;4746;35.664;139.738;2024-03-29T05:39:12;3.13;;;1.40;;
9413;SDS011;4746;35.664;139.738;2024-03-29T05:41:41;3.20;;;1.50;;
9413;SDS011;4746;35.664;139.738;2024-03-29T05:44:09;4.15;;;1.60;;
9413;SDS011;4746;35.664;139.738;2024-03-29T05:46:39;2.80;;;1.77;;
9413;SDS011;4746;35.664;139.738;2024-03-29T05:49:07;5.15;;;2.28;;
9413;SDS011;4746;35.664;139.738;2024-03-29T05:51:35;4.55;;;1.42;;
9413;SDS011;4746;35.664;139.738;2024-03-29T05:54:03;4.15;;;1.75;;
9413;SDS011;4746;35.664;139.738;2024-03-29T05:56:31;2.20;;;1.42;;
9413;SDS011;4746;35.664;139.738;2024-03-29T05:58:59;2.72;;;1.38;;
9413;SDS011;4746;35.664;139.738;2024-03-29T06:01:26;2.42;;;1.10;;
9413;SDS011;4746;35.664;139.738;2024-03-29T06:03:55;2.92;;;1.60;;
9413;SDS011;4746;35.664;139.738;2024-03-29T06:06:30;2.83;;;1.58;;
9413;SDS011;4746;35.664;139.738;2024-03-29T06:08:57;2.90;;;1.45;;
9413;SDS011;4746;35.664;139.738;2024-03-29T06:11:25;3.20;;;1.48;;
9413;SDS011;4746;35.664;139.738;2024-03-29T06:13:53;2.30;;;1.45;;
9413;SDS011;4746;35.664;139.738;2024-03-29T06:16:24;3.20;;;1.35;;
9413;SDS011;4746;35.664;139.738;2024-03-29T06:19:12;2.53;;;1.45;;
9413;SDS011;4746;35.664;139.738;2024-03-29T06:21:41;2.88;;;1.48;;
9413;SDS011;4746;35.664;139.738;2024-03-29T06:24:09;4.22;;;1.88;;
9413;SDS011;4746;35.664;139.738;2024-03-29T06:26:39;3.83;;;1.55;;
9413;SDS011;4746;35.664;139.738;2024-03-29T06:29:08;2.85;;;1.67;;
9413;SDS011;4746;35.664;139.738;2024-03-29T06:31:39;1.98;;;1.77;;
9413;SDS011;4746;35.664;139.738;2024-03-29T06:34:10;2.13;;;1.50;;
9413;SDS011;4746;35.664;139.738;2024-03-29T06:36:38;3.10;;;1.70;;
9413;SDS011;4746;35.664;139.738;2024-03-29T06:39:06;3.08;;;1.65;;
9413;SDS011;4746;35.664;139.738;2024-03-29T06:41:34;2.20;;;1.77;;
9413;SDS011;4746;35.664;139.738;2024-03-29T06:44:02;1.92;;;1.70;;
9413;SDS011;4746;35.664;139.738;2024-03-29T06:46:30;3.85;;;2.40;;
9413;SDS011;4746;35.664;139.738;2024-03-29T06:49:00;2.67;;;1.52;;
9413;SDS011;4746;35.664;139.738;2024-03-29T06:51:28;5.43;;;1.83;;
9413;SDS011;4746;35.664;139.738;2024-03-29T06:53:57;3.42;;;2.08;;
9413;SDS011;4746;35.664;139.738;2024-03-29T06:56:26;7.18;;;2.00;;
9413;SDS011;4746;35.664;139.738;2024-03-29T06:58:55;5.88;;;2.10;;
9413;SDS011;4746;35.664;139.738;2024-03-29T07:01:28;4.35;;;2.20;;
9413;SDS011;4746;35.664;139.738;2024-03-29T07:03:56;3.40;;;2.00;;
9413;SDS011;4746;35.664;139.738;2024-03-29T07:06:24;4.88;;;2.95;;
9413;SDS011;4746;35.664;139.738;2024-03-29T07:08:52;3.88;;;2.25;;
9413;SDS011;4746;35.664;139.738;2024-03-29T07:11:20;2.97;;;1.80;;
9413;SDS011;4746;35.664;139.738;2024-03-29T07:13:48;4.88;;;2.13;;
9413;SDS011;4746;35.664;139.738;2024-03-29T07:16:16;4.93;;;2.50;;
9413;SDS011;4746;35.664;139.738;2024-03-29T07:18:47;3.00;;;1.75;;
9413;SDS011;4746;35.664;139.738;2024-03-29T07:21:15;2.67;;;1.73;;
9413;SDS011;4746;35.664;139.738;2024-03-29T07:23:44;3.72;;;2.33;;
9413;SDS011;4746;35.664;139.738;2024-03-29T07:26:12;5.50;;;2.03;;
9413;SDS011;4746;35.664;139.738;2024-03-29T07:28:43;5.20;;;2.40;;
9413;SDS011;4746;35.664;139.738;2024-03-29T07:31:11;3.90;;;2.13;;
9413;SDS011;4746;35.664;139.738;2024-03-29T07:33:39;4.80;;;2.50;;
9413;SDS011;4746;35.664;139.738;2024-03-29T07:36:07;4.68;;;2.67;;
9413;SDS011;4746;35.664;139.738;2024-03-29T07:38:36;5.10;;;2.60;;
9413;SDS011;4746;35.664;139.738;2024-03-29T07:41:06;5.50;;;2.38;;
9413;SDS011;4746;35.664;139.738;2024-03-29T07:43:39;3.42;;;2.38;;
9413;SDS011;4746;35.664;139.738;2024-03-29T07:46:34;3.53;;;2.20;;
9413;SDS011;4746;35.664;139.738;2024-03-29T07:49:03;4.70;;;2.47;;
9413;SDS011;4746;35.664;139.738;2024-03-29T07:51:31;3.20;;;2.28;;
9413;SDS011;4746;35.664;139.738;2024-03-29T07:53:59;3.33;;;2.30;;
9413;SDS011;4746;35.664;139.738;2024-03-29T07:56:27;5.22;;;2.38;;
9413;SDS011;4746;35.664;139.738;2024-03-29T07:58:55;4.68;;;2.47;;
9413;SDS011;4746;35.664;139.738;2024-03-29T08:01:23;4.13;;;2.85;;
9413;SDS011;4746;35.664;139.738;2024-03-29T08:03:52;5.82;;;2.92;;
9413;SDS011;4746;35.664;139.738;2024-03-29T08:06:20;5.50;;;3.58;;
9413;SDS011;4746;35.664;139.738;2024-03-29T08:08:51;6.07;;;3.38;;
9413;SDS011;4746;35.664;139.738;2024-03-29T08:11:19;4.65;;;2.97;;
9413;SDS011;4746;35.664;139.738;2024-03-29T08:13:47;7.45;;;3.33;;
9413;SDS011;4746;35.664;139.738;2024-03-29T08:16:15;4.75;;;3.33;;
9413;SDS011;4746;35.664;139.738;2024-03-29T08:18:45;4.90;;;3.33;;
9413;SDS011;4746;35.664;139.738;2024-03-29T08:21:16;7.22;;;3.83;;
9413;SDS011;4746;35.664;139.738;2024-03-29T08:23:44;4.95;;;3.40;;
9413;SDS011;4746;35.664;139.738;2024-03-29T08:26:15;7.65;;;3.70;;
9413;SDS011;4746;35.664;139.738;2024-03-29T08:28:44;5.30;;;2.97;;
9413;SDS011;4746;35.664;139.738;2024-03-29T08:31:12;5.82;;;3.35;;
9413;SDS011;4746;35.664;139.738;2024-03-29T08:33:41;6.38;;;3.30;;
9413;SDS011;4746;35.664;139.738;2024-03-29T08:36:09;6.03;;;3.30;;
9413;SDS011;4746;35.664;139.738;2024-03-29T08:38:37;6.85;;;3.33;;
9413;SDS011;4746;35.664;139.738;2024-03-29T08:41:09;6.22;;;3.53;;
9413;SDS011;4746;35.664;139.738;2024-03-29T08:43:37;6.40;;;3.60;;
9413;SDS011;4746;35.664;139.738;2024-03-29T08:46:05;8.73;;;4.45;;
9413;SDS011;4746;35.664;139.738;2024-03-29T08:48:34;7.45;;;3.80;;
9413;SDS011;4746;35.664;139.738;2024-03-29T08:51:05;6.15;;;3.80;;
9413;SDS011;4746;35.664;139.738;2024-03-29T08:53:33;5.45;;;4.20;;
9413;SDS011;4746;35.664;139.738;2024-03-29T08:56:03;6.57;;;4.30;;
9413;SDS011;4746;35.664;139.738;2024-03-29T08:58:31;5.40;;;3.33;;
9413;SDS011;4746;35.664;139.738;2024-03-29T09:00:59;4.97;;;3.08;;
9413;SDS011;4746;35.664;139.738;2024-03-29T09:03:29;5.70;;;3.42;;
9413;SDS011;4746;35.664;139.738;2024-03-29T09:05:57;6.25;;;3.60;;
9413;SDS011;4746;35.664;139.738;2024-03-29T09:08:25;4.65;;;3.53;;
9413;SDS011;4746;35.664;139.738;2024-03-29T09:10:53;6.03;;;4.15;;
9413;SDS011;4746;35.664;139.738;2024-03-29T09:13:20;5.22;;;3.42;;
9413;SDS011;4746;35.664;139.738;2024-03-29T09:15:48;5.40;;;4.10;;
9413;SDS011;4746;35.664;139.738;2024-03-29T09:18:15;6.05;;;3.42;;
9413;SDS011;4746;35.664;139.738;2024-03-29T09:20:59;4.93;;;3.72;;
9413;SDS011;4746;35.664;139.738;2024-03-29T09:23:27;6.32;;;4.20;;
9413;SDS011;4746;35.664;139.738;2024-03-29T09:25:55;6.97;;;5.05;;
9413;SDS011;4746;35.664;139.738;2024-03-29T09:28:23;7.30;;;5.00;;
9413;SDS011;4746;35.664;139.738;2024-03-29T09:31:01;5.75;;;4.57;;
9413;SDS011;4746;35.664;139.738;2024-03-29T09:33:28;4.93;;;4.03;;
9413;SDS011;4746;35.664;139.738;2024-03-29T09:35:56;5.22;;;4.03;;
9413;SDS011;4746;35.664;139.738;2024-03-29T09:38:27;8.88;;;4.90;;
9413;SDS011;4746;35.664;139.738;2024-03-29T09:43:44;8.30;;;5.22;;
9413;SDS011;4746;35.664;139.738;2024-03-29T09:46:14;6.60;;;4.85;;
9413;SDS011;4746;35.664;139.738;2024-03-29T09:48:43;5.95;;;4.85;;
9413;SDS011;4746;35.664;139.738;2024-03-29T09:51:13;7.47;;;4.55;;
9413;SDS011;4746;35.664;139.738;2024-03-29T09:53:42;7.22;;;4.70;;
9413;SDS011;4746;35.664;139.738;2024-03-29T09:56:11;10.32;;;5.10;;
9413;SDS011;4746;35.664;139.738;2024-03-29T09:58:39;7.00;;;4.75;;
9413;SDS011;4746;35.664;139.738;2024-03-29T10:01:07;5.82;;;4.45;;
9413;SDS011;4746;35.664;139.738;2024-03-29T10:03:42;6.93;;;4.82;;
9413;SDS011;4746;35.664;139.738;2024-03-29T10:06:17;7.47;;;5.43;;
9413;SDS011;4746;35.664;139.738;2024-03-29T10:08:46;8.32;;;4.65;;
9413;SDS011;4746;35.664;139.738;2024-03-29T10:11:14;10.40;;;4.82;;
9413;SDS011;4746;35.664;139.738;2024-03-29T10:13:44;5.65;;;4.10;;
9413;SDS011;4746;35.664;139.738;2024-03-29T10:16:12;6.95;;;4.32;;
9413;SDS011;4746;35.664;139.738;2024-03-29T10:18:43;7.80;;;4.70;;
9413;SDS011;4746;35.664;139.738;2024-03-29T10:21:13;10.85;;;4.45;;
9413;SDS011;4746;35.664;139.738;2024-03-29T10:23:42;6.05;;;4.47;;
9413;SDS011;4746;35.664;139.738;2024-03-29T10:26:12;7.30;;;4.70;;
9413;SDS011;4746;35.664;139.738;2024-03-29T10:28:41;7.05;;;4.05;;
9413;SDS011;4746;35.664;139.738;2024-03-29T10:31:14;6.88;;;4.50;;
9413;SDS011;4746;35.664;139.738;2024-03-29T10:33:44;4.68;;;4.18;;
9413;SDS011;4746;35.664;139.738;2024-03-29T10:36:14;10.57;;;4.30;;
9413;SDS011;4746;35.664;139.738;2024-03-29T10:38:43;5.30;;;4.43;;
9413;SDS011;4746;35.664;139.738;2024-03-29T10:41:13;5.78;;;4.25;;
9413;SDS011;4746;35.664;139.738;2024-03-29T10:43:42;7.05;;;4.00;;
9413;SDS011;4746;35.664;139.738;2024-03-29T10:46:12;6.43;;;4.25;;
9413;SDS011;4746;35.664;139.738;2024-03-29T10:48:43;6.30;;;5.38;;
9413;SDS011;4746;35.664;139.738;2024-03-29T10:51:14;5.88;;;4.45;;
9413;SDS011;4746;35.664;139.738;2024-03-29T10:53:42;7.05;;;6.03;;
9413;SDS011;4746;35.664;139.738;2024-03-29T10:56:11;8.55;;;5.45;;
9413;SDS011;4746;35.664;139.738;2024-03-29T10:58:41;8.75;;;6.03;;
9413;SDS011;4746;35.664;139.738;2024-03-29T11:01:16;7.38;;;6.65;;
9413;SDS011;4746;35.664;139.738;2024-03-29T11:03:49;5.85;;;5.30;;
9413;SDS011;4746;35.664;139.738;2024-03-29T11:06:23;9.18;;;6.57;;
9413;SDS011;4746;35.664;139.738;2024-03-29T11:08:56;5.22;;;4.80;;
9413;SDS011;4746;35.664;139.738;2024-03-29T11:11:27;6.82;;;6.07;;
9413;SDS011;4746;35.664;139.738;2024-03-29T11:14:13;6.43;;;5.93;;
9413;SDS011;4746;35.664;139.738;2024-03-29T11:16:57;5.07;;;4.57;;
9413;SDS011;4746;35.664;139.738;2024-03-29T11:19:26;6.43;;;5.82;;
9413;SDS011;4746;35.664;139.738;2024-03-29T11:21:55;8.13;;;5.78;;
9413;SDS011;4746;35.664;139.738;2024-03-29T11:24:23;7.70;;;6.90;;
9413;SDS011;4746;35.664;139.738;2024-03-29T11:26:54;8.13;;;7.30;;
9413;SDS011;4746;35.664;139.738;2024-03-29T11:29:22;7.85;;;6.47;;
9413;SDS011;4746;35.664;139.738;2024-03-29T11:31:57;7.43;;;6.65;;
9413;SDS011;4746;35.664;139.738;2024-03-29T11:34:25;6.90;;;6.30;;
9413;SDS011;4746;35.664;139.738;2024-03-29T11:37:07;7.33;;;6.50;;
9413;SDS011;4746;35.664;139.738;2024-03-29T11:39:46;6.63;;;5.68;;
9413;SDS011;4746;35.664;139.738;2024-03-29T11:42:14;5.85;;;5.35;;
9413;SDS011;4746;35.664;139.738;2024-03-29T11:44:42;5.65;;;4.90;;
9413;SDS011;4746;35.664;139.738;2024-03-29T11:47:11;6.45;;;5.28;;
9413;SDS011;4746;35.664;139.738;2024-03-29T11:49:45;8.30;;;6.00;;
9413;SDS011;4746;35.664;139.738;2024-03-29T11:52:22;5.40;;;4.90;;
9413;SDS011;4746;35.664;139.738;2024-03-29T11:54:53;6.78;;;5.75;;
9413;SDS011;4746;35.664;139.738;2024-03-29T11:57:21;7.68;;;6.68;;
9413;SDS011;4746;35.664;139.738;2024-03-29T11:59:49;8.68;;;7.25;;
9413;SDS011;4746;35.664;139.738;2024-03-29T12:02:17;13.52;;;11.13;;
9413;SDS011;4746;35.664;139.738;2024-03-29T12:04:45;11.20;;;10.07;;
9413;SDS011;4746;35.664;139.738;2024-03-29T12:07:13;14.88;;;13.07;;
9413;SDS011;4746;35.664;139.738;2024-03-29T12:09:42;15.63;;;14.02;;
9413;SDS011;4746;35.664;139.738;2024-03-29T12:12:11;18.60;;;15.73;;
9413;SDS011;4746;35.664;139.738;2024-03-29T12:14:43;22.90;;;17.08;;
9413;SDS011;4746;35.664;139.738;2024-03-29T12:17:11;22.30;;;17.38;;
9413;SDS011;4746;35.664;139.738;2024-03-29T12:19:39;24.27;;;16.45;;
9413;SDS011;4746;35.664;139.738;2024-03-29T12:22:08;19.60;;;14.50;;
9413;SDS011;4746;35.664;139.738;2024-03-29T12:24:37;24.57;;;15.13;;
9413;SDS011;4746;35.664;139.738;2024-03-29T12:27:05;21.13;;;15.03;;
9413;SDS011;4746;35.664;139.738;2024-03-29T12:29:34;24.23;;;15.27;;
9413;SDS011;4746;35.664;139.738;2024-03-29T12:32:02;23.53;;;16.67;;
9413;SDS011;4746;35.664;139.738;2024-03-29T12:34:31;25.07;;;16.23;;
9413;SDS011;4746;35.664;139.738;2024-03-29T12:37:00;22.27;;;16.03;;
9413;SDS011;4746;35.664;139.738;2024-03-29T12:39:30;24.93;;;15.47;;
9413;SDS011;4746;35.664;139.738;2024-03-29T12:41:59;24.90;;;14.93;;
9413;SDS011;4746;35.664;139.738;2024-03-29T12:44:28;21.17;;;13.40;;
9413;SDS011;4746;35.664;139.738;2024-03-29T12:46:58;18.53;;;12.60;;
9413;SDS011;4746;35.664;139.738;2024-03-29T12:49:27;22.70;;;14.73;;
9413;SDS011;4746;35.664;139.738;2024-03-29T12:51:56;24.23;;;14.50;;
9413;SDS011;4746;35.664;139.738;2024-03-29T12:54:24;23.93;;;13.17;;
9413;SDS011;4746;35.664;139.738;2024-03-29T12:56:53;22.80;;;13.70;;
9413;SDS011;4746;35.664;139.738;2024-03-29T12:59:21;22.87;;;13.47;;
9413;SDS011;4746;35.664;139.738;2024-03-29T13:01:54;24.70;;;14.40;;
9413;SDS011;4746;35.664;139.738;2024-03-29T13:04:22;23.00;;;14.57;;
9413;SDS011;4746;35.664;139.738;2024-03-29T13:06:50;24.23;;;14.07;;
9413;SDS011;4746;35.664;139.738;2024-03-29T13:09:18;22.37;;;15.13;;
9413;SDS011;4746;35.664;139.738;2024-03-29T13:11:47;22.03;;;14.17;;
9413;SDS011;4746;35.664;139.738;2024-03-29T13:14:15;27.50;;;15.03;;
9413;SDS011;4746;35.664;139.738;2024-03-29T13:16:44;28.40;;;18.67;;
9413;SDS011;4746;35.664;139.738;2024-03-29T13:19:13;20.63;;;14.23;;
9413;SDS011;4746;35.664;139.738;2024-03-29T13:21:41;22.70;;;14.23;;
9413;SDS011;4746;35.664;139.738;2024-03-29T13:24:13;20.77;;;13.80;;
9413;SDS011;4746;35.664;139.738;2024-03-29T13:26:41;23.07;;;15.47;;
9413;SDS011;4746;35.664;139.738;2024-03-29T13:29:10;18.93;;;13.27;;
9413;SDS011;4746;35.664;139.738;2024-03-29T13:31:41;25.20;;;13.67;;
9413;SDS011;4746;35.664;139.738;2024-03-29T13:34:09;21.67;;;13.90;;
9413;SDS011;4746;35.664;139.738;2024-03-29T13:36:41;20.37;;;12.73;;
9413;SDS011;4746;35.664;139.738;2024-03-29T13:39:11;22.30;;;12.20;;
9413;SDS011;4746;35.664;139.738;2024-03-29T13:41:41;16.00;;;10.23;;
9413;SDS011;4746;35.664;139.738;2024-03-29T13:44:10;23.70;;;11.47;;
9413;SDS011;4746;35.664;139.738;2024-03-29T13:46:43;20.37;;;10.93;;
9413;SDS011;4746;35.664;139.738;2024-03-29T13:49:11;18.43;;;11.33;;
9413;SDS011;4746;35.664;139.738;2024-03-29T13:51:40;18.20;;;10.50;;
9413;SDS011;4746;35.664;139.738;2024-03-29T13:54:12;20.97;;;12.40;;
9413;SDS011;4746;35.664;139.738;2024-03-29T13:56:41;29.27;;;13.60;;
9413;SDS011;4746;35.664;139.738;2024-03-29T13:59:10;21.03;;;12.50;;
9413;SDS011;4746;35.664;139.738;2024-03-29T14:01:38;23.73;;;14.10;;
9413;SDS011;4746;35.664;139.738;2024-03-29T14:04:07;20.87;;;12.40;;
9413;SDS011;4746;35.664;139.738;2024-03-29T14:06:35;21.77;;;13.83;;
9413;SDS011;4746;35.664;139.738;2024-03-29T14:09:04;22.17;;;12.87;;
9413;SDS011;4746;35.664;139.738;2024-03-29T14:11:33;21.00;;;13.43;;
9413;SDS011;4746;35.664;139.738;2024-03-29T14:14:01;23.97;;;13.53;;
9413;SDS011;4746;35.664;139.738;2024-03-29T14:16:33;21.47;;;13.20;;
9413;SDS011;4746;35.664;139.738;2024-03-29T14:19:03;19.13;;;12.63;;
9413;SDS011;4746;35.664;139.738;2024-03-29T14:21:31;21.33;;;13.90;;
9413;SDS011;4746;35.664;139.738;2024-03-29T14:24:00;20.93;;;13.67;;
9413;SDS011;4746;35.664;139.738;2024-03-29T14:26:30;25.40;;;13.37;;
9413;SDS011;4746;35.664;139.738;2024-03-29T14:29:02;26.53;;;14.30;;
9413;SDS011;4746;35.664;139.738;2024-03-29T14:31:37;24.20;;;14.20;;
9413;SDS011;4746;35.664;139.738;2024-03-29T14:34:06;18.90;;;13.07;;
9413;SDS011;4746;35.664;139.738;2024-03-29T14:36:34;18.37;;;13.53;;
9413;SDS011;4746;35.664;139.738;2024-03-29T14:39:03;25.63;;;14.73;;
9413;SDS011;4746;35.664;139.738;2024-03-29T14:41:32;25.00;;;14.23;;
9413;SDS011;4746;35.664;139.738;2024-03-29T14:44:02;24.77;;;17.40;;
9413;SDS011;4746;35.664;139.738;2024-03-29T14:46:34;26.37;;;16.73;;
9413;SDS011;4746;35.664;139.738;2024-03-29T14:49:03;23.07;;;15.93;;
9413;SDS011;4746;35.664;139.738;2024-03-29T14:51:37;20.30;;;15.03;;
9413;SDS011;4746;35.664;139.738;2024-03-29T14:54:19;25.43;;;17.10;;